createdAt,value
2019-04-04T00:00:32.359Z,69.20
2019-04-04T00:05:31.919Z,69.00
2019-04-04T00:10:32.837Z,69.40
2019-04-04T00:15:32.986Z,68.90
2019-04-04T00:20:32.662Z,69.40
2019-04-04T00:25:32.215Z,69.80
2019-04-04T00:30:32.850Z,70.20
2019-04-04T00:35:34.683Z,70.00
2019-04-04T00:40:36.828Z,70.00
2019-04-04T00:45:37.205Z,70.20
2019-04-04T00:50:39.107Z,70.30
2019-04-04T00:55:40.348Z,70.60
2019-04-04T01:00:40.038Z,70.90
2019-04-04T01:05:39.594Z,71.10
2019-04-04T01:10:39.165Z,71.40
2019-04-04T01:15:38.733Z,70.60
2019-04-04T01:20:41.024Z,71.00
2019-04-04T01:25:43.114Z,71.00
2019-04-04T01:30:43.589Z,71.10
2019-04-04T01:35:43.753Z,71.10
2019-04-04T01:40:45.547Z,71.00
2019-04-04T01:45:45.326Z,71.00
2019-04-04T01:50:58.222Z,71.50
2019-04-04T01:56:00.324Z,71.50
2019-04-04T02:01:00.011Z,71.90
2019-04-04T02:05:59.600Z,71.60
2019-04-04T02:10:59.145Z,72.40
2019-04-04T02:15:58.697Z,72.60
2019-04-04T02:20:58.480Z,72.70
2019-04-04T02:26:00.672Z,73.40
2019-04-04T02:31:00.561Z,74.40
2019-04-04T02:36:00.120Z,74.80
2019-04-04T02:40:59.684Z,75.00
2019-04-04T02:45:59.400Z,75.30
2019-04-04T02:50:58.971Z,75.90
2019-04-04T02:56:02.213Z,76.50
2019-04-04T03:01:00.592Z,77.40
2019-04-04T03:06:00.217Z,77.90
2019-04-04T03:10:59.788Z,78.40
2019-04-04T03:15:59.359Z,78.30
2019-04-04T03:20:58.937Z,79.50
2019-04-04T03:25:58.489Z,79.70
2019-04-04T03:31:02.413Z,80.50
2019-04-04T03:36:01.094Z,82.40
2019-04-04T03:41:00.550Z,84.20
2019-04-04T03:46:01.347Z,84.40
2019-04-04T03:51:04.745Z,85.90
2019-04-04T03:56:02.570Z,87.30
2019-04-04T04:01:02.266Z,88.30
2019-04-04T04:06:01.846Z,89.30
2019-04-04T04:11:04.868Z,90.50
2019-04-04T04:16:03.849Z,90.90
2019-04-04T04:21:09.696Z,90.70
2019-04-04T04:26:09.373Z,91.20
2019-04-04T04:31:07.178Z,91.40
2019-04-04T04:36:09.805Z,91.40
2019-04-04T04:41:07.990Z,92.00
2019-04-04T04:46:07.535Z,92.40
2019-04-04T04:51:07.099Z,93.00
2019-04-04T04:56:06.663Z,93.20
2019-04-04T05:01:06.226Z,93.50
2019-04-04T05:06:05.778Z,93.80
2019-04-04T05:11:05.322Z,93.80
2019-04-04T05:16:08.551Z,94.00
2019-04-04T05:21:06.397Z,94.20
2019-04-04T05:26:05.937Z,94.00
2019-04-04T05:31:06.453Z,94.30
2019-04-04T05:36:06.079Z,94.30
2019-04-04T05:41:05.982Z,94.20
2019-04-04T05:46:05.707Z,93.90
2019-04-04T05:51:05.305Z,93.60
2019-04-04T05:56:06.441Z,93.60
2019-04-04T06:01:08.187Z,93.90
2019-04-04T06:06:10.371Z,93.80
2019-04-04T06:11:08.977Z,93.90
2019-04-04T06:21:27.192Z,93.00
2019-04-04T06:26:26.737Z,92.50
2019-04-04T06:31:27.981Z,92.50
2019-04-04T06:36:27.543Z,91.70
2019-04-04T06:41:28.334Z,91.80
2019-04-04T06:46:28.120Z,91.40
2019-04-04T06:51:27.670Z,91.40
2019-04-04T06:56:31.798Z,91.30
2019-04-04T07:01:30.587Z,91.50
2019-04-04T07:06:30.209Z,91.40
2019-04-04T07:11:29.757Z,91.10
2019-04-04T07:16:30.607Z,91.30
2019-04-04T07:21:30.190Z,91.40
2019-04-04T07:26:29.746Z,91.00
2019-04-04T07:31:33.183Z,91.10
2019-04-04T07:36:31.001Z,89.80
2019-04-04T07:41:30.676Z,90.10
2019-04-04T07:46:30.783Z,90.70
2019-04-04T07:51:30.936Z,90.00
2019-04-04T07:56:31.866Z,89.40
2019-04-04T08:01:32.493Z,89.10
2019-04-04T08:06:32.069Z,89.60
2019-04-04T08:11:31.614Z,88.60
2019-04-04T08:16:31.161Z,87.80
2019-04-04T08:21:30.731Z,88.40
2019-04-04T08:26:30.261Z,87.60
2019-04-04T08:31:29.816Z,87.40
2019-04-04T08:36:29.369Z,86.00
2019-04-04T08:41:30.033Z,83.10
2019-04-04T08:46:30.172Z,81.80
2019-04-04T08:51:29.809Z,79.80
2019-04-04T08:56:29.352Z,77.80
2019-04-04T09:01:28.928Z,76.00
2019-04-04T09:06:29.599Z,72.70
2019-04-04T09:11:29.722Z,71.60
2019-04-04T09:16:30.102Z,69.90
2019-04-04T09:21:29.719Z,67.40
2019-04-04T09:26:29.262Z,65.90
2019-04-04T09:31:29.427Z,63.90
2019-04-04T09:36:29.090Z,59.90
2019-04-04T09:41:28.748Z,58.80
2019-04-04T09:46:28.286Z,58.80
2019-04-04T09:51:27.856Z,59.70
2019-04-04T09:56:27.493Z,58.80
2019-04-04T10:01:27.055Z,58.80
2019-04-04T10:06:26.605Z,56.00
2019-04-04T10:11:26.163Z,58.30
2019-04-04T10:16:25.735Z,56.40
2019-04-04T10:21:25.294Z,55.60
2019-04-04T10:26:24.870Z,54.80
2019-04-04T10:31:24.407Z,53.60
2019-04-04T10:36:24.045Z,54.00
2019-04-04T10:41:24.346Z,54.10
2019-04-04T10:46:23.904Z,54.00
2019-04-04T10:51:24.123Z,52.40
2019-04-04T10:56:25.181Z,50.90
2019-04-04T11:01:24.841Z,49.10
2019-04-04T11:06:24.523Z,49.30
2019-04-04T11:11:25.163Z,46.90
2019-04-04T11:16:30.385Z,47.70
2019-04-04T11:21:26.042Z,48.30
2019-04-04T11:26:25.722Z,48.50
2019-04-04T11:31:25.425Z,50.80
2019-04-04T11:36:24.989Z,49.60
2019-04-04T11:41:24.575Z,49.30
2019-04-04T11:46:24.121Z,50.00
2019-04-04T11:51:23.645Z,48.30
2019-04-04T11:56:23.229Z,49.00
2019-04-04T12:01:23.808Z,49.50
2019-04-04T12:06:23.362Z,50.60
2019-04-04T12:11:22.953Z,50.50
2019-04-04T12:16:22.618Z,49.80
2019-04-04T12:21:22.175Z,50.80
2019-04-04T12:26:21.729Z,50.40
2019-04-04T12:31:21.284Z,47.20
2019-04-04T12:36:24.774Z,48.60
2019-04-04T12:41:22.085Z,48.30
2019-04-04T12:46:21.667Z,48.40
2019-04-04T12:51:21.231Z,47.40
2019-04-04T12:56:20.796Z,48.10
2019-04-04T13:01:21.460Z,46.80
2019-04-04T13:06:21.314Z,47.00
2019-04-04T13:11:20.866Z,47.70
2019-04-04T13:16:20.423Z,47.40
2019-04-04T13:21:21.500Z,47.10
2019-04-04T13:26:21.494Z,47.20
2019-04-04T13:31:21.040Z,47.70
2019-04-04T13:36:20.597Z,47.50
2019-04-04T13:41:22.101Z,49.70
2019-04-04T13:46:24.526Z,48.40
2019-04-04T13:51:25.366Z,48.00
2019-04-04T13:56:23.908Z,46.90
2019-04-04T14:01:25.365Z,47.50
2019-04-04T14:06:24.877Z,46.30
2019-04-04T14:11:24.426Z,46.80
2019-04-04T14:16:23.976Z,46.70
2019-04-04T14:21:24.489Z,45.70
2019-04-04T14:26:24.070Z,45.50
2019-04-04T14:31:23.737Z,45.20
2019-04-04T14:36:23.363Z,44.60
2019-04-04T14:41:22.905Z,45.00
2019-04-04T14:46:22.526Z,44.30
2019-04-04T14:51:22.081Z,44.90
2019-04-04T14:56:21.653Z,45.30
2019-04-04T15:01:21.202Z,44.30
2019-04-04T15:06:20.752Z,44.90
2019-04-04T15:11:24.256Z,44.70
2019-04-04T15:16:21.581Z,43.60
2019-04-04T15:21:21.135Z,42.20
2019-04-04T15:26:20.754Z,42.80
2019-04-04T15:31:20.305Z,43.40
2019-04-04T15:36:19.901Z,43.40
2019-04-04T15:41:19.473Z,42.90
2019-04-04T15:46:20.702Z,41.80
2019-04-04T15:51:20.326Z,42.10
2019-04-04T15:56:19.895Z,43.50
2019-04-04T16:01:19.477Z,43.60
2019-04-04T16:06:19.099Z,43.20
2019-04-04T16:11:18.689Z,42.50
2019-04-04T16:16:18.248Z,40.90
2019-04-04T16:21:17.808Z,40.50
2019-04-04T16:26:18.426Z,40.00
2019-04-04T16:31:18.797Z,39.80
2019-04-04T16:36:18.363Z,40.60
2019-04-04T16:41:17.975Z,41.50
2019-04-04T16:46:17.621Z,42.80
2019-04-04T16:51:17.169Z,43.20
2019-04-04T16:56:16.723Z,41.80
2019-04-04T17:01:16.345Z,42.50
2019-04-04T17:06:15.896Z,43.00
2019-04-04T17:11:15.445Z,43.20
2019-04-04T17:16:14.989Z,43.80
2019-04-04T17:21:14.581Z,44.60
2019-04-04T17:26:14.148Z,45.40
2019-04-04T17:31:14.831Z,45.70
2019-04-04T17:36:14.489Z,46.60
2019-04-04T17:41:14.043Z,46.70
2019-04-04T17:46:13.703Z,47.20
2019-04-04T17:51:13.467Z,47.00
2019-04-04T17:56:13.349Z,47.20
2019-04-04T18:01:13.736Z,47.70
2019-04-04T18:06:13.800Z,48.80
2019-04-04T18:11:13.360Z,48.00
2019-04-04T18:16:12.912Z,49.70
2019-04-04T18:21:12.545Z,50.00
2019-04-04T18:26:12.105Z,49.90
2019-04-04T18:31:11.697Z,50.20
2019-04-04T18:36:11.621Z,50.20
2019-04-04T18:41:11.285Z,52.00
2019-04-04T18:46:11.841Z,52.00
2019-04-04T18:51:11.403Z,52.60
2019-04-04T18:56:10.960Z,52.70
2019-04-04T19:01:10.584Z,53.50
2019-04-04T19:06:10.293Z,53.10
2019-04-04T19:11:09.817Z,53.00
2019-04-04T19:16:09.365Z,52.80
2019-04-04T19:21:08.942Z,52.60
2019-04-04T19:26:10.855Z,52.10
2019-04-04T19:31:10.741Z,52.30
2019-04-04T19:36:10.372Z,52.60
2019-04-04T19:41:09.998Z,52.80
2019-04-04T19:46:09.652Z,53.30
2019-04-04T19:51:09.267Z,53.10
2019-04-04T19:56:08.819Z,53.50
2019-04-04T20:01:08.494Z,53.20
2019-04-04T20:06:08.171Z,53.30
2019-04-04T20:11:07.763Z,53.30
2019-04-04T20:16:07.358Z,53.40
2019-04-04T20:21:06.922Z,53.40
2019-04-04T20:26:06.480Z,53.20
2019-04-04T20:31:06.042Z,53.40
2019-04-04T20:36:06.202Z,53.90
2019-04-04T20:41:06.563Z,53.70
2019-04-04T20:46:06.150Z,54.00
2019-04-04T20:51:06.449Z,54.30
2019-04-04T20:56:06.041Z,54.10
2019-04-04T21:01:05.671Z,54.50
2019-04-04T21:06:05.322Z,54.50
2019-04-04T21:11:05.040Z,54.70
2019-04-04T21:16:05.258Z,54.80
2019-04-04T21:21:05.029Z,55.10
2019-04-04T21:26:04.824Z,54.80
2019-04-04T21:31:04.543Z,55.50
2019-04-04T21:36:05.287Z,55.60
2019-04-04T21:41:05.032Z,56.00
2019-04-04T21:46:04.762Z,55.90
2019-04-04T21:51:04.379Z,56.00
2019-04-04T21:56:03.940Z,56.20
2019-04-04T22:01:23.293Z,56.30
2019-04-04T22:06:24.462Z,56.70
2019-04-04T22:11:24.030Z,56.40
2019-04-04T22:16:23.573Z,56.80
2019-04-04T22:21:23.150Z,56.80
2019-04-04T22:26:22.685Z,56.70
2019-04-04T22:31:22.241Z,56.70
2019-04-04T22:36:21.811Z,57.00
2019-04-04T22:41:21.489Z,57.30
2019-04-04T22:46:21.061Z,57.40
2019-04-04T22:51:20.682Z,57.60
2019-04-04T22:56:20.228Z,57.50
2019-04-04T23:01:19.786Z,57.70
2019-04-04T23:06:19.349Z,58.10
2019-04-04T23:11:18.937Z,58.40
2019-04-04T23:16:18.496Z,58.30
2019-04-04T23:21:18.062Z,58.40
2019-04-04T23:26:17.597Z,58.70
2019-04-04T23:31:17.146Z,59.00
2019-04-04T23:36:16.714Z,59.60
2019-04-04T23:41:16.277Z,59.70
2019-04-04T23:46:15.829Z,59.70
2019-04-04T23:51:16.521Z,60.30
2019-04-04T23:56:16.068Z,60.20
